createdAt,value
2023-06-19T00:00:23.151Z,26.69
2023-06-19T00:02:50.582Z,26.65
2023-06-19T00:05:18.406Z,26.64
2023-06-19T00:07:45.394Z,26.61
2023-06-19T00:10:12.667Z,26.59
2023-06-19T00:12:39.662Z,26.59
2023-06-19T00:15:15.089Z,26.59
2023-06-19T00:20:33.396Z,26.54
2023-06-19T00:23:00.345Z,26.50
2023-06-19T00:25:30.738Z,26.44
2023-06-19T00:27:57.746Z,26.39
2023-06-19T00:30:26.361Z,26.35
2023-06-19T00:32:53.497Z,26.35
2023-06-19T00:35:27.677Z,26.35
2023-06-19T00:37:55.104Z,26.30
2023-06-19T00:40:33.579Z,26.30
2023-06-19T00:43:06.921Z,26.25
2023-06-19T00:45:35.621Z,26.26
2023-06-19T00:48:05.807Z,26.23
2023-06-19T00:50:35.380Z,26.23
2023-06-19T00:53:04.519Z,26.15
2023-06-19T00:55:38.371Z,26.10
2023-06-19T00:58:06.894Z,26.06
2023-06-19T01:00:35.404Z,26.05
2023-06-19T01:03:02.682Z,26.00
2023-06-19T01:05:32.257Z,25.95
2023-06-19T01:08:05.838Z,25.90
2023-06-19T01:10:59.109Z,25.82
2023-06-19T01:13:43.738Z,25.84
2023-06-19T01:16:34.093Z,25.82
2023-06-19T01:19:07.039Z,25.82
2023-06-19T01:21:34.772Z,25.85
2023-06-19T01:24:06.799Z,25.88
2023-06-19T01:26:34.000Z,25.89
2023-06-19T01:29:01.340Z,25.90
2023-06-19T01:31:38.316Z,25.93
2023-06-19T01:34:11.636Z,25.93
2023-06-19T01:36:39.968Z,25.95
2023-06-19T01:39:12.082Z,25.98
2023-06-19T01:41:42.009Z,25.93
2023-06-19T01:44:14.242Z,25.90
2023-06-19T01:46:41.627Z,25.84
2023-06-19T01:49:11.659Z,25.82
2023-06-19T01:51:38.616Z,25.77
2023-06-19T01:54:05.710Z,25.78
2023-06-19T01:56:35.449Z,25.75
2023-06-19T01:59:02.498Z,25.79
2023-06-19T02:01:29.728Z,25.84
2023-06-19T02:03:57.010Z,25.85
2023-06-19T02:06:26.376Z,25.86
2023-06-19T02:08:55.404Z,25.85
2023-06-19T02:11:22.443Z,25.79
2023-06-19T02:13:51.631Z,25.79
2023-06-19T02:16:19.108Z,25.74
2023-06-19T02:18:46.074Z,25.75
2023-06-19T02:21:13.321Z,25.68
2023-06-19T02:23:40.235Z,25.67
2023-06-19T02:26:13.725Z,25.69
2023-06-19T02:28:49.794Z,25.72
2023-06-19T02:31:18.688Z,25.75
2023-06-19T02:33:47.891Z,25.75
2023-06-19T02:36:16.687Z,25.72
2023-06-19T02:38:44.883Z,25.79
2023-06-19T02:41:16.140Z,25.82
2023-06-19T02:43:45.924Z,25.89
2023-06-19T02:46:13.674Z,25.85
2023-06-19T02:48:43.237Z,25.88
2023-06-19T02:51:10.256Z,25.89
2023-06-19T02:53:37.453Z,25.92
2023-06-19T02:56:13.637Z,25.98
2023-06-19T02:58:41.677Z,25.99
2023-06-19T03:01:09.030Z,26.06
2023-06-19T03:03:36.068Z,26.10
2023-06-19T03:06:05.706Z,26.16
2023-06-19T03:08:33.832Z,26.18
2023-06-19T03:11:01.281Z,26.20
2023-06-19T03:13:28.299Z,26.22
2023-06-19T03:15:55.331Z,26.18
2023-06-19T03:18:25.385Z,26.19
2023-06-19T03:20:53.649Z,26.19
2023-06-19T03:23:25.796Z,26.16
2023-06-19T03:25:54.792Z,26.16
2023-06-19T03:28:22.140Z,26.19
2023-06-19T03:30:50.624Z,26.16
2023-06-19T03:33:25.178Z,26.13
2023-06-19T03:35:53.511Z,26.13
2023-06-19T03:38:40.260Z,26.09
2023-06-19T03:41:08.864Z,26.08
2023-06-19T03:43:39.070Z,26.06
2023-06-19T03:49:03.613Z,26.09
2023-06-19T03:51:33.718Z,26.08
2023-06-19T03:54:02.149Z,26.16
2023-06-19T03:56:35.688Z,26.20
2023-06-19T04:04:07.030Z,26.26
2023-06-19T04:11:15.244Z,26.16
2023-06-19T04:13:42.696Z,26.20
2023-06-19T04:16:12.329Z,26.23
2023-06-19T04:18:42.126Z,26.20
2023-06-19T04:21:09.084Z,26.13
2023-06-19T04:23:38.224Z,26.12
2023-06-19T04:26:05.376Z,26.08
2023-06-19T04:28:34.666Z,26.15
2023-06-19T04:31:01.826Z,26.19
2023-06-19T04:33:31.494Z,26.20
2023-06-19T04:36:02.178Z,26.20
2023-06-19T04:39:01.480Z,26.29
2023-06-19T04:41:28.416Z,26.22
2023-06-19T04:44:02.408Z,26.26
2023-06-19T04:46:29.467Z,26.23
2023-06-19T04:53:10.806Z,26.15
2023-06-19T04:55:37.830Z,26.19
2023-06-19T04:58:13.889Z,26.26
2023-06-19T05:02:16.198Z,26.29
2023-06-19T05:05:13.176Z,26.23
2023-06-19T05:07:40.589Z,26.25
2023-06-19T05:10:17.573Z,26.30
2023-06-19T05:12:44.826Z,26.35
2023-06-19T05:15:12.059Z,26.37
2023-06-19T05:17:40.509Z,26.44
2023-06-19T05:20:09.143Z,26.39
2023-06-19T05:22:36.196Z,26.39
2023-06-19T05:25:03.303Z,26.39
2023-06-19T05:27:30.175Z,26.36
2023-06-19T05:29:57.108Z,26.43
2023-06-19T05:35:17.129Z,26.43
2023-06-19T05:37:44.457Z,26.46
2023-06-19T05:40:12.156Z,26.53
2023-06-19T05:42:39.134Z,26.41
2023-06-19T05:45:08.742Z,26.46
2023-06-19T05:47:36.044Z,26.43
2023-06-19T05:50:03.354Z,26.43
2023-06-19T05:52:31.727Z,26.41
2023-06-19T05:54:58.831Z,26.44
2023-06-19T05:57:25.935Z,26.50
2023-06-19T05:59:52.851Z,26.54
2023-06-19T06:02:21.202Z,26.50
2023-06-19T06:04:48.221Z,26.49
2023-06-19T06:07:15.405Z,26.47
2023-06-19T06:09:43.733Z,26.51
2023-06-19T06:12:11.183Z,26.46
2023-06-19T06:14:38.270Z,26.44
2023-06-19T06:17:06.252Z,26.44
2023-06-19T06:19:34.918Z,26.41
2023-06-19T06:22:01.800Z,26.37
2023-06-19T06:24:28.858Z,26.41
2023-06-19T06:26:58.795Z,26.40
2023-06-19T06:32:11.600Z,26.39
2023-06-19T06:34:38.573Z,26.47
2023-06-19T06:37:06.806Z,26.49
2023-06-19T06:39:34.514Z,26.54
2023-06-19T06:42:03.209Z,26.63
2023-06-19T06:44:30.350Z,26.63
2023-06-19T06:46:57.231Z,26.73
2023-06-19T06:49:24.376Z,26.81
2023-06-19T06:51:51.259Z,26.88
2023-06-19T06:54:18.186Z,26.95
2023-06-19T06:56:45.120Z,27.00
2023-06-19T06:59:13.919Z,27.07
2023-06-19T07:01:40.867Z,27.15
2023-06-19T07:04:08.127Z,27.20
2023-06-19T07:06:35.147Z,27.21
2023-06-19T07:09:02.375Z,27.27
2023-06-19T07:11:29.468Z,27.32
2023-06-19T07:13:56.496Z,27.38
2023-06-19T07:16:24.814Z,27.43
2023-06-19T07:18:51.842Z,27.43
2023-06-19T07:21:18.861Z,27.45
2023-06-19T07:23:47.512Z,27.42
2023-06-19T07:26:14.908Z,27.38
2023-06-19T07:28:42.094Z,27.32
2023-06-19T07:31:09.040Z,27.30
2023-06-19T07:33:37.320Z,27.30
2023-06-19T07:36:08.046Z,27.32
2023-06-19T07:38:34.988Z,27.39
2023-06-19T07:41:01.954Z,27.38
2023-06-19T07:43:29.130Z,27.42
2023-06-19T07:45:56.069Z,27.41
2023-06-19T07:48:49.481Z,27.32
2023-06-19T07:51:16.603Z,27.35
2023-06-19T07:53:43.559Z,27.37
2023-06-19T07:56:10.531Z,27.41
2023-06-19T07:58:37.504Z,27.39
2023-06-19T08:01:04.658Z,27.52
2023-06-19T08:03:31.705Z,27.53
2023-06-19T08:06:00.247Z,27.58
2023-06-19T08:08:28.060Z,27.53
2023-06-19T08:10:55.327Z,27.56
2023-06-19T08:13:22.174Z,27.61
2023-06-19T08:15:49.124Z,27.67
2023-06-19T08:18:16.066Z,27.76
2023-06-19T08:20:43.377Z,27.76
2023-06-19T08:23:13.573Z,27.90
2023-06-19T08:25:40.484Z,28.07
2023-06-19T08:28:07.469Z,28.23
2023-06-19T08:30:34.384Z,28.44
2023-06-19T08:33:01.406Z,28.60
2023-06-19T08:35:29.471Z,28.82
2023-06-19T08:37:56.473Z,29.06
2023-06-19T08:40:25.672Z,29.30
2023-06-19T08:42:52.853Z,29.52
2023-06-19T08:45:20.056Z,29.72
2023-06-19T08:47:48.331Z,30.24
2023-06-19T08:50:16.129Z,30.83
2023-06-19T08:52:46.304Z,31.44
2023-06-19T08:55:13.704Z,31.99
2023-06-19T08:57:42.620Z,32.51
2023-06-19T09:00:10.607Z,32.95
2023-06-19T09:02:41.104Z,33.46
2023-06-19T09:05:16.784Z,33.95
2023-06-19T09:07:44.912Z,34.22
2023-06-19T09:10:19.346Z,34.39
2023-06-19T09:12:59.901Z,34.48
2023-06-19T09:15:30.967Z,34.71
2023-06-19T09:18:07.013Z,34.90
2023-06-19T09:20:36.320Z,35.11
2023-06-19T09:23:03.355Z,35.38
2023-06-19T09:25:30.713Z,35.31
2023-06-19T09:27:59.350Z,35.24
2023-06-19T09:30:26.633Z,35.31
2023-06-19T09:32:53.803Z,35.54
2023-06-19T09:35:21.490Z,35.65
2023-06-19T09:37:49.954Z,35.61
2023-06-19T09:40:17.431Z,35.41
2023-06-19T09:42:45.302Z,35.20
2023-06-19T09:45:29.130Z,35.08
2023-06-19T09:47:56.138Z,34.93
2023-06-19T09:50:28.618Z,34.73
2023-06-19T09:52:57.797Z,34.45
2023-06-19T09:55:25.978Z,34.31
2023-06-19T09:57:53.765Z,34.23
2023-06-19T10:00:21.110Z,34.16
2023-06-19T10:02:50.821Z,34.21
2023-06-19T10:05:17.880Z,34.35
2023-06-19T10:07:46.946Z,34.53
2023-06-19T10:10:25.323Z,34.74
2023-06-19T10:12:54.963Z,35.07
2023-06-19T10:15:24.790Z,35.30
2023-06-19T10:18:00.109Z,35.58
2023-06-19T10:20:30.088Z,35.71
2023-06-19T10:23:07.000Z,35.95
2023-06-19T10:25:36.941Z,36.11
2023-06-19T10:28:08.766Z,36.35
2023-06-19T10:30:36.724Z,36.63
2023-06-19T10:33:05.044Z,36.77
2023-06-19T10:35:39.809Z,37.24
2023-06-19T10:38:06.818Z,37.41
2023-06-19T10:40:33.828Z,37.58
2023-06-19T10:43:01.138Z,37.68
2023-06-19T10:45:28.189Z,38.03
2023-06-19T10:47:56.609Z,38.49
2023-06-19T10:50:28.730Z,38.88
2023-06-19T10:52:55.916Z,39.08
2023-06-19T10:55:24.155Z,38.91
2023-06-19T10:57:51.844Z,38.50
2023-06-19T11:00:27.490Z,38.05
2023-06-19T11:02:54.749Z,37.71
2023-06-19T11:05:24.138Z,37.69
2023-06-19T11:07:56.410Z,37.99
2023-06-19T11:10:25.462Z,38.37
2023-06-19T11:12:55.995Z,38.87
2023-06-19T11:15:30.683Z,39.56
2023-06-19T11:17:58.285Z,39.88
2023-06-19T11:20:26.644Z,40.14
2023-06-19T11:23:00.945Z,40.12
2023-06-19T11:25:37.139Z,40.03
2023-06-19T11:28:04.841Z,40.09
2023-06-19T11:30:33.478Z,40.27
2023-06-19T11:33:01.137Z,40.41
2023-06-19T11:35:35.561Z,40.45
2023-06-19T11:38:02.749Z,40.70
2023-06-19T11:40:41.280Z,40.95
2023-06-19T11:43:08.571Z,40.88
2023-06-19T11:48:40.315Z,40.88
2023-06-19T11:51:08.667Z,40.98
2023-06-19T11:53:35.758Z,40.87
2023-06-19T11:56:02.864Z,40.71
2023-06-19T11:58:29.827Z,40.44
2023-06-19T12:00:56.997Z,40.48
2023-06-19T12:03:24.192Z,40.64
2023-06-19T12:05:53.067Z,40.51
2023-06-19T12:08:21.307Z,40.41
2023-06-19T12:11:13.454Z,40.50
2023-06-19T12:13:41.648Z,40.64
2023-06-19T12:16:08.726Z,40.68
2023-06-19T12:18:35.645Z,40.70
2023-06-19T12:21:02.614Z,40.95
2023-06-19T12:23:31.150Z,41.01
2023-06-19T12:25:58.918Z,41.11
2023-06-19T12:28:26.032Z,41.26
2023-06-19T12:30:54.466Z,41.35
2023-06-19T12:33:21.914Z,41.34
2023-06-19T12:35:48.897Z,41.42
2023-06-19T12:38:17.610Z,41.36
2023-06-19T12:40:46.011Z,41.25
2023-06-19T12:43:13.558Z,41.22
2023-06-19T12:45:40.476Z,41.26
2023-06-19T12:48:07.587Z,41.31
2023-06-19T12:50:34.825Z,41.38
2023-06-19T12:53:01.875Z,41.52
2023-06-19T12:55:28.931Z,41.32
2023-06-19T12:57:57.328Z,40.91
2023-06-19T13:00:24.628Z,40.36
2023-06-19T13:02:52.007Z,39.73
2023-06-19T13:05:19.227Z,39.25
2023-06-19T13:07:46.120Z,38.81
2023-06-19T13:10:15.638Z,38.39
2023-06-19T13:12:42.637Z,38.11
2023-06-19T13:15:11.718Z,38.09
2023-06-19T13:17:39.167Z,38.13
2023-06-19T13:20:08.219Z,38.32
2023-06-19T13:22:35.157Z,38.29
2023-06-19T13:25:02.763Z,38.19
2023-06-19T13:27:29.754Z,37.88
2023-06-19T13:29:56.718Z,37.57
2023-06-19T13:35:17.318Z,37.18
2023-06-19T13:37:44.407Z,37.11
2023-06-19T13:40:11.842Z,36.98
2023-06-19T13:42:38.855Z,36.60
2023-06-19T13:45:07.679Z,36.37
2023-06-19T13:47:37.676Z,36.54
2023-06-19T13:50:09.841Z,36.98
2023-06-19T13:52:38.072Z,37.66
2023-06-19T13:55:06.414Z,38.32
2023-06-19T13:57:33.335Z,38.67
2023-06-19T14:00:00.632Z,38.68
2023-06-19T14:02:27.947Z,38.62
2023-06-19T14:04:57.471Z,38.53
2023-06-19T14:07:24.524Z,38.16
2023-06-19T14:09:51.864Z,37.82
2023-06-19T14:12:19.038Z,37.52
2023-06-19T14:14:46.182Z,37.25
2023-06-19T14:17:13.380Z,36.95
2023-06-19T14:19:41.067Z,36.76
2023-06-19T14:22:09.387Z,36.77
2023-06-19T14:24:37.025Z,37.08
2023-06-19T14:27:07.278Z,37.28
2023-06-19T14:29:34.380Z,37.45
2023-06-19T14:32:01.277Z,37.72
2023-06-19T14:34:28.336Z,38.03
2023-06-19T14:36:55.207Z,38.26
2023-06-19T14:39:27.397Z,38.27
2023-06-19T14:41:54.510Z,38.15
2023-06-19T14:44:21.421Z,38.15
2023-06-19T14:47:13.970Z,38.12
2023-06-19T14:49:42.653Z,38.03
2023-06-19T14:52:09.566Z,37.72
2023-06-19T14:54:37.972Z,37.24
2023-06-19T14:57:05.899Z,36.95
2023-06-19T14:59:32.872Z,36.94
2023-06-19T15:02:00.241Z,37.10
2023-06-19T15:04:27.308Z,37.34
2023-06-19T15:06:54.307Z,37.42
2023-06-19T15:09:21.302Z,37.37
2023-06-19T15:11:49.683Z,37.32
2023-06-19T15:14:16.597Z,37.28
2023-06-19T15:16:43.695Z,37.20
2023-06-19T15:19:10.803Z,37.11
2023-06-19T15:21:38.250Z,37.04
2023-06-19T15:24:05.789Z,36.95
2023-06-19T15:26:33.219Z,36.80
2023-06-19T15:29:01.629Z,36.79
2023-06-19T15:31:28.604Z,36.79
2023-06-19T15:33:55.526Z,36.90
2023-06-19T15:36:22.493Z,36.98
2023-06-19T15:38:51.815Z,37.06
2023-06-19T15:41:22.346Z,37.11
2023-06-19T15:43:49.270Z,37.06
2023-06-19T15:46:17.942Z,36.87
2023-06-19T15:48:45.116Z,36.64
2023-06-19T15:51:14.821Z,36.44
2023-06-19T15:53:41.762Z,36.30
2023-06-19T15:56:11.531Z,36.25
2023-06-19T15:58:39.650Z,36.19
2023-06-19T16:01:06.593Z,36.25
2023-06-19T16:03:35.046Z,36.35
2023-06-19T16:06:08.754Z,36.52
2023-06-19T16:08:36.933Z,36.71
2023-06-19T16:11:03.860Z,36.88
2023-06-19T16:13:30.861Z,37.03
2023-06-19T16:16:02.738Z,37.20
2023-06-19T16:18:29.918Z,37.10
2023-06-19T16:20:58.266Z,36.95
2023-06-19T16:23:25.142Z,36.76
2023-06-19T16:25:55.302Z,36.63
2023-06-19T16:28:27.641Z,36.57
2023-06-19T16:30:54.733Z,36.56
2023-06-19T16:33:24.758Z,36.47
2023-06-19T16:35:52.038Z,36.47
2023-06-19T16:38:23.440Z,36.46
2023-06-19T16:40:50.548Z,36.43
2023-06-19T16:43:19.847Z,36.39
2023-06-19T16:45:46.850Z,36.26
2023-06-19T16:48:15.954Z,36.20
2023-06-19T16:50:43.407Z,36.09
2023-06-19T16:53:10.299Z,36.08
2023-06-19T16:55:39.086Z,35.96
2023-06-19T16:58:09.020Z,35.85
2023-06-19T17:00:35.930Z,35.71
2023-06-19T17:03:07.705Z,35.70
2023-06-19T17:05:34.746Z,35.71
2023-06-19T17:08:01.924Z,35.75
2023-06-19T17:10:56.214Z,35.85
2023-06-19T17:13:26.734Z,35.84
2023-06-19T17:15:55.356Z,35.88
2023-06-19T17:18:22.326Z,35.88
2023-06-19T17:20:49.462Z,35.86
2023-06-19T17:23:16.578Z,35.78
2023-06-19T17:25:46.461Z,35.68
2023-06-19T17:28:15.270Z,35.70
2023-06-19T17:30:42.166Z,35.65
2023-06-19T17:33:10.823Z,35.58
2023-06-19T17:35:37.785Z,35.55
2023-06-19T17:38:04.772Z,35.52
2023-06-19T17:40:32.591Z,35.50
2023-06-19T17:42:59.874Z,35.47
2023-06-19T17:45:30.740Z,35.38
2023-06-19T17:47:57.825Z,35.21
2023-06-19T17:50:25.053Z,35.00
2023-06-19T17:52:55.030Z,34.73
2023-06-19T17:55:22.066Z,34.50
2023-06-19T17:57:51.947Z,34.28
2023-06-19T18:00:19.874Z,34.11
2023-06-19T18:02:51.367Z,33.94
2023-06-19T18:05:18.550Z,33.77
2023-06-19T18:07:45.423Z,33.67
2023-06-19T18:10:15.512Z,33.64
2023-06-19T18:12:45.728Z,33.61
2023-06-19T18:15:12.760Z,33.55
2023-06-19T18:17:39.832Z,33.47
2023-06-19T18:20:10.473Z,33.31
2023-06-19T18:22:37.452Z,33.16
2023-06-19T18:25:12.486Z,33.04
2023-06-19T18:27:39.370Z,32.95
2023-06-19T18:30:12.038Z,32.83
2023-06-19T18:32:39.153Z,32.79
2023-06-19T18:35:08.804Z,32.73
2023-06-19T18:37:35.755Z,32.68
2023-06-19T18:40:12.104Z,32.65
2023-06-19T18:42:53.920Z,32.52
2023-06-19T18:45:25.482Z,32.40
2023-06-19T18:47:52.355Z,32.25
2023-06-19T18:50:24.834Z,32.07
2023-06-19T18:52:51.970Z,31.89
2023-06-19T18:55:20.740Z,31.76
2023-06-19T18:57:47.794Z,31.56
2023-06-19T19:00:52.358Z,31.39
2023-06-19T19:03:19.353Z,31.19
2023-06-19T19:05:48.371Z,31.06
2023-06-19T19:08:27.368Z,30.97
2023-06-19T19:11:00.133Z,30.82
2023-06-19T19:13:27.036Z,30.71
2023-06-19T19:15:54.061Z,30.58
2023-06-19T19:18:21.054Z,30.45
2023-06-19T19:20:52.335Z,30.39
2023-06-19T19:23:20.075Z,30.32
2023-06-19T19:25:46.994Z,30.28
2023-06-19T19:28:17.019Z,30.27
2023-06-19T19:30:45.818Z,30.23
2023-06-19T19:33:13.053Z,30.15
2023-06-19T19:35:40.532Z,30.15
2023-06-19T19:38:10.784Z,30.08
2023-06-19T19:40:37.915Z,30.01
2023-06-19T19:43:05.985Z,29.94
2023-06-19T19:45:33.120Z,29.87
2023-06-19T19:48:02.496Z,29.80
2023-06-19T19:50:29.761Z,29.69
2023-06-19T19:52:56.714Z,29.63
2023-06-19T19:55:25.225Z,29.59
2023-06-19T19:57:52.131Z,29.50
2023-06-19T20:00:19.263Z,29.49
2023-06-19T20:02:46.359Z,29.43
2023-06-19T20:05:15.730Z,29.45
2023-06-19T20:07:45.059Z,29.43
2023-06-19T20:10:12.067Z,29.45
2023-06-19T20:12:40.445Z,29.37
2023-06-19T20:15:31.182Z,29.35
2023-06-19T20:17:58.154Z,29.36
2023-06-19T20:20:28.218Z,29.33
2023-06-19T20:22:55.580Z,29.27
2023-06-19T20:25:26.456Z,29.23
2023-06-19T20:28:07.275Z,29.22
2023-06-19T20:30:34.995Z,29.20
2023-06-19T20:33:02.024Z,29.16
2023-06-19T20:35:29.048Z,29.12
2023-06-19T20:37:56.082Z,29.08
2023-06-19T20:40:28.987Z,29.04
2023-06-19T20:43:00.261Z,28.99
2023-06-19T20:45:33.278Z,28.95
2023-06-19T20:48:00.505Z,28.95
2023-06-19T20:50:30.446Z,28.91
2023-06-19T20:52:57.506Z,28.91
2023-06-19T20:55:28.169Z,28.88
2023-06-19T20:57:56.282Z,28.85
2023-06-19T21:00:28.157Z,28.84
2023-06-19T21:02:55.416Z,28.75
2023-06-19T21:05:22.459Z,28.69
2023-06-19T21:07:49.582Z,28.65
2023-06-19T21:10:16.564Z,28.61
2023-06-19T21:12:46.595Z,28.57
2023-06-19T21:15:20.858Z,28.51
2023-06-19T21:17:50.472Z,28.40
2023-06-19T21:20:25.114Z,28.36
2023-06-19T21:22:53.768Z,28.32
2023-06-19T21:25:30.083Z,28.25
2023-06-19T21:28:00.465Z,28.17
2023-06-19T21:30:32.035Z,28.12
2023-06-19T21:33:00.560Z,28.06
2023-06-19T21:35:27.696Z,27.96
2023-06-19T21:38:01.184Z,27.92
2023-06-19T21:40:28.239Z,27.86
2023-06-19T21:42:57.051Z,27.85
2023-06-19T21:45:26.452Z,27.81
2023-06-19T21:47:56.318Z,27.76
2023-06-19T21:50:27.474Z,27.72
2023-06-19T21:52:56.760Z,27.67
2023-06-19T21:55:23.809Z,27.66
2023-06-19T21:57:59.219Z,27.61
2023-06-19T22:00:28.952Z,27.53
2023-06-19T22:03:02.733Z,27.51
2023-06-19T22:05:31.234Z,27.45
2023-06-19T22:07:58.372Z,27.39
2023-06-19T22:10:25.600Z,27.35
2023-06-19T22:12:55.101Z,27.30
2023-06-19T22:15:22.373Z,27.27
2023-06-19T22:17:49.504Z,27.22
2023-06-19T22:20:17.338Z,27.21
2023-06-19T22:22:47.505Z,27.16
2023-06-19T22:25:15.478Z,27.11
2023-06-19T22:27:42.502Z,27.10
2023-06-19T22:30:11.153Z,27.05
2023-06-19T22:32:43.502Z,27.01
2023-06-19T22:35:10.919Z,26.95
2023-06-19T22:37:38.770Z,26.92
2023-06-19T22:40:11.382Z,26.87
2023-06-19T22:42:38.394Z,26.80
2023-06-19T22:45:07.081Z,26.73
2023-06-19T22:47:34.134Z,26.59
2023-06-19T22:50:01.164Z,26.49
2023-06-19T22:52:28.230Z,26.44
2023-06-19T22:54:55.572Z,26.44
2023-06-19T22:57:23.842Z,26.43
2023-06-19T22:59:50.743Z,26.39
2023-06-19T23:02:20.018Z,26.37
2023-06-19T23:04:53.548Z,26.36
2023-06-19T23:07:21.585Z,26.32
2023-06-19T23:09:55.792Z,26.30
2023-06-19T23:12:24.447Z,26.26
2023-06-19T23:14:51.376Z,26.23
2023-06-19T23:17:21.511Z,26.20
2023-06-19T23:19:48.505Z,26.09
2023-06-19T23:22:17.500Z,26.10
2023-06-19T23:24:44.418Z,26.06
2023-06-19T23:27:12.020Z,26.03
2023-06-19T23:29:40.243Z,26.02
2023-06-19T23:32:07.569Z,25.99
2023-06-19T23:34:40.153Z,25.95
2023-06-19T23:37:07.117Z,25.86
2023-06-19T23:39:33.986Z,25.84
2023-06-19T23:42:01.000Z,25.79
2023-06-19T23:44:41.977Z,25.78
2023-06-19T23:47:10.284Z,25.74
2023-06-19T23:49:37.211Z,25.72
2023-06-19T23:52:08.884Z,25.71
2023-06-19T23:54:35.809Z,25.67
2023-06-19T23:57:03.054Z,25.65
2023-06-19T23:59:30.108Z,25.62
